Time;durP1;ratioP1;P1;durP2;ratioP2;P2;SDS_P1;SDS_P2;PMS_P1;PMS_P2;Temp;Humidity;BMP_temperature;BMP_pressure;BME280_temperature;BME280_humidity;BME280_pressure;Samples;Min_cycle;Max_cycle;Signal;HPM_P1;HPM_P2
2022/02/03 07:17:14;;;;;;;40.40;21.12;;;;;;;0.12;94.18;99491.55;1670775;82;21943;-48
2022/02/03 07:20:05;;;;;;;44.25;23.40;;;;;;;0.17;93.53;99500.25;1668373;83;21435;-39
2022/02/03 07:22:47;;;;;;;43.60;19.85;;;;;;;0.15;93.22;99500.22;1646971;85;21073;-46
2022/02/03 07:26:27;;;;;;;36.23;19.02;;;;;;;0.13;93.19;99501.02;1680941;83;21073;-40
2022/02/03 07:29:29;;;;;;;34.05;17.17;;;;;;;0.09;93.44;99499.17;1683925;83;21038;-47
2022/02/03 07:32:15;;;;;;;39.35;19.98;;;;;;;0.12;93.86;99488.98;1677913;83;21042;-47
2022/02/03 07:35:32;;;;;;;34.00;18.57;;;;;;;0.14;93.95;99488.19;1687799;83;21073;-48
2022/02/03 07:38:21;;;;;;;27.17;14.80;;;;;;;0.25;94.81;99486.80;1653889;85;21098;-46
2022/02/03 07:40:54;;;;;;;30.15;15.93;;;;;;;0.37;94.19;99490.13;1669727;84;21148;-39
2022/02/03 07:43:27;;;;;;;26.05;15.08;;;;;;;0.44;94.06;99493.73;1676608;84;21034;-46
2022/02/03 07:45:54;;;;;;;23.10;13.60;;;;;;;0.51;94.04;99499.08;1685827;83;21597;-47
2022/02/03 07:48:21;;;;;;;22.52;13.68;;;;;;;0.61;94.20;99496.77;1684405;83;21025;-47
2022/02/03 07:50:49;;;;;;;19.17;10.98;;;;;;;0.69;94.08;99502.56;1657910;84;21053;-39
2022/02/03 07:53:17;;;;;;;19.42;11.48;;;;;;;0.80;93.50;99500.28;1665067;84;21056;-47
2022/02/03 07:55:44;;;;;;;18.62;11.50;;;;;;;0.84;92.48;99496.97;1686032;83;21064;-47
2022/02/03 07:58:10;;;;;;;24.23;12.68;;;;;;;0.85;91.92;99499.98;1690387;83;21013;-39
2022/02/03 08:00:37;;;;;;;21.57;12.70;;;;;;;0.87;91.72;99494.87;1688724;83;21601;-39
2022/02/03 08:03:09;;;;;;;21.37;12.80;;;;;;;0.90;91.78;99502.69;1687816;83;21085;-47
2022/02/03 08:05:35;;;;;;;23.70;13.95;;;;;;;0.93;91.88;99492.06;1681854;83;21609;-47
2022/02/03 08:08:18;;;;;;;21.62;13.03;;;;;;;1.03;91.90;99488.00;1685219;83;21044;-38
2022/02/03 08:10:41;;;;;;;24.87;14.05;;;;;;;1.11;91.63;99497.23;1683076;83;21103;-47
2022/02/03 08:28:33;;;;;;;21.55;13.70;;;;;;;1.60;88.34;99507.87;1704961;82;21025;-48
2022/02/03 08:31:31;;;;;;;25.55;14.85;;;;;;;1.65;87.88;99504.53;1711235;82;21087;-48
2022/02/03 08:33:59;;;;;;;27.02;14.95;;;;;;;1.68;87.63;99508.45;1711433;82;21013;-48
2022/02/03 08:36:43;;;;;;;26.60;14.13;;;;;;;1.75;87.07;99508.66;1712283;82;21415;-39
2022/02/03 08:39:11;;;;;;;25.75;14.87;;;;;;;1.71;86.33;99505.97;1680046;83;21383;-39
2022/02/03 08:41:39;;;;;;;20.95;13.60;;;;;;;1.65;86.53;99498.09;1716298;82;21029;-40
2022/02/03 08:44:06;;;;;;;28.27;15.78;;;;;;;1.68;86.86;99502.01;1715561;82;21505;-41
2022/02/03 08:46:33;;;;;;;20.80;12.88;;;;;;;1.76;87.11;99509.10;1681764;83;21063;-47
2022/02/03 08:49:05;;;;;;;24.10;14.85;;;;;;;1.83;85.85;99494.62;1680461;83;21002;-39
2022/02/03 08:51:31;;;;;;;25.02;14.58;;;;;;;1.80;85.64;99496.73;1689530;81;21376;-47
2022/02/03 08:54:05;;;;;;;26.87;15.40;;;;;;;1.79;85.86;99506.99;1680009;83;21484;-39
2022/02/03 09:36:00;;;;;;;23.57;15.40;;;;;;;2.83;79.56;99524.63;1707333;82;21733;-39
2022/02/03 09:55:23;;;;;;;22.58;15.15;;;;;;;2.45;81.74;99520.91;1689014;83;21678;-39
2022/02/03 09:57:52;;;;;;;25.12;16.25;;;;;;;2.45;81.67;99517.03;1674792;83;21013;-39
2022/02/03 10:00:32;;;;;;;23.62;15.43;;;;;;;2.49;81.85;99516.23;1660052;83;21627;-39
2022/02/03 10:03:11;;;;;;;28.87;16.60;;;;;;;2.50;81.20;99522.30;1680379;84;20992;-48
2022/02/03 10:05:42;;;;;;;22.07;14.28;;;;;;;2.46;81.59;99525.22;1687055;83;21632;-38
2022/02/03 10:08:20;;;;;;;24.37;15.67;;;;;;;2.51;81.85;99526.61;1677753;82;21061;-48
2022/02/03 10:10:48;;;;;;;24.25;14.78;;;;;;;2.56;81.66;99528.45;1654401;84;21148;-48
2022/02/03 10:13:21;;;;;;;25.88;14.03;;;;;;;2.57;81.29;99524.15;1654219;85;21451;-48
2022/02/03 10:16:19;;;;;;;24.60;14.03;;;;;;;2.55;81.38;99527.10;1666675;83;21596;-40
2022/02/03 10:23:33;;;;;;;23.65;14.80;;;;;;;2.51;82.01;99530.06;1617267;87;21565;-48
2022/02/03 10:26:36;;;;;;;22.48;14.10;;;;;;;2.49;81.93;99525.69;1610844;87;21081;-39
2022/02/03 10:29:47;;;;;;;23.30;15.32;;;;;;;2.46;82.30;99520.48;1580761;89;21395;-38
2022/02/03 10:32:43;;;;;;;29.92;16.15;;;;;;;2.44;82.27;99514.00;1611225;87;21077;-48
2022/02/03 10:35:23;;;;;;;24.60;15.60;;;;;;;2.40;82.74;99516.93;1609126;87;21617;-40
2022/02/03 10:43:57;;;;;;;26.97;16.12;;;;;;;2.39;83.62;99531.98;1617776;87;21408;-48
2022/02/03 10:55:05;;;;;;;24.63;15.68;;;;;;;2.39;84.40;99528.11;1609043;88;21069;-47
2022/02/03 10:57:11;;;;;;;26.55;15.72;;;;;;;2.42;84.53;99524.70;1628353;85;21162;-39
2022/02/03 11:02:25;;;;;;;25.80;16.15;;;;;;;2.58;84.38;99518.14;1652745;85;21573;-47
2022/02/03 11:05:12;;;;;;;27.25;16.05;;;;;;;2.69;84.27;99526.10;1645469;85;21431;-47
2022/02/03 11:07:09;;;;;;;24.75;14.35;;;;;;;2.77;84.16;99525.39;1646506;85;21597;-47
2022/02/03 11:09:48;;;;;;;29.20;17.05;;;;;;;2.83;83.42;99529.37;1645801;86;21003;-48
2022/02/03 11:12:09;;;;;;;23.83;14.73;;;;;;;2.83;83.15;99527.22;1631393;86;21128;-39
2022/02/03 11:14:38;;;;;;;23.83;16.52;;;;;;;2.81;82.85;99528.91;1635512;85;21069;-38
2022/02/03 11:17:07;;;;;;;27.98;15.43;;;;;;;2.76;82.65;99527.53;1646480;85;21957;-45
2022/02/03 11:19:51;;;;;;;28.30;16.10;;;;;;;2.69;82.88;99519.22;1608902;86;21227;-47
2022/02/03 11:30:39;;;;;;;24.90;14.90;;;;;;;2.59;83.85;99528.91;1697799;82;21375;-47
2022/02/03 11:37:38;;;;;;;25.40;15.75;;;;;;;2.61;84.16;99526.83;1716266;82;21025;-38
2022/02/03 12:19:03;;;;;;;42.83;23.80;;;;;;;2.30;85.95;99531.77;1709926;82;20961;-47
2022/02/03 12:21:22;;;;;;;26.57;16.62;;;;;;;2.33;85.89;99527.98;1670581;84;21061;-46
2022/02/03 12:26:27;;;;;;;27.42;17.20;;;;;;;2.34;85.68;99530.14;1665879;84;21040;-45
2022/02/03 12:29:01;;;;;;;27.25;16.02;;;;;;;2.32;85.87;99540.83;1674578;83;21777;-38
2022/02/03 12:31:52;;;;;;;24.60;15.38;;;;;;;2.28;85.84;99547.66;1638983;87;21722;-38
2022/02/03 12:40:28;;;;;;;25.70;15.50;;;;;;;2.17;86.64;99558.17;1672941;84;21002;-46
2022/02/03 12:42:19;;;;;;;25.32;17.00;;;;;;;2.13;86.94;99563.67;1668881;83;21494;-46
2022/02/03 12:44:39;;;;;;;29.67;17.10;;;;;;;2.10;87.12;99559.75;1683356;83;21074;-46
2022/02/03 12:47:05;;;;;;;26.65;15.55;;;;;;;2.06;87.38;99564.80;1667229;84;21006;-45
2022/02/03 12:49:37;;;;;;;27.62;16.05;;;;;;;2.07;87.68;99571.70;1675851;84;20990;-46
2022/02/03 12:52:27;;;;;;;26.33;16.02;;;;;;;2.11;87.86;99573.09;1679684;83;21097;-46
2022/02/03 12:54:55;;;;;;;27.22;16.80;;;;;;;2.14;87.90;99570.98;1672165;84;21077;-47
2022/02/03 12:57:32;;;;;;;28.17;16.40;;;;;;;2.20;87.99;99581.87;1660489;84;20943;-46
2022/02/03 13:00:16;;;;;;;27.75;17.57;;;;;;;2.23;87.97;99582.82;1683829;83;21513;-45
2022/02/03 13:03:00;;;;;;;21.82;14.53;;;;;;;2.27;87.93;99583.35;1690272;83;20977;-39
2022/02/03 13:05:30;;;;;;;22.48;14.23;;;;;;;2.28;87.77;99587.67;1688201;84;21124;-48
2022/02/03 13:08:00;;;;;;;26.20;16.27;;;;;;;2.28;87.71;99582.93;1677067;83;20999;-39
2022/02/03 13:10:36;;;;;;;20.43;14.25;;;;;;;2.26;87.75;99589.36;1679753;84;21068;-46
2022/02/03 13:13:23;;;;;;;21.20;13.10;;;;;;;2.26;87.67;99588.06;1658049;85;21631;-41
2022/02/03 13:15:46;;;;;;;19.85;13.35;;;;;;;2.26;87.71;99597.10;1657087;84;21376;-49
2022/02/03 13:18:23;;;;;;;21.12;13.18;;;;;;;2.28;87.79;99599.71;1676759;84;21540;-37
2022/02/03 13:20:53;;;;;;;22.37;13.32;;;;;;;2.28;87.66;99591.55;1676653;83;21304;-38
2022/02/03 13:23:17;;;;;;;17.92;11.83;;;;;;;2.29;87.62;99601.45;1676603;83;21010;-45
2022/02/03 13:26:00;;;;;;;16.77;11.70;;;;;;;2.28;87.34;99603.16;1675106;84;21613;-39
2022/02/03 13:28:30;;;;;;;20.45;11.80;;;;;;;2.25;87.41;99604.79;1671483;84;21000;-47
2022/02/03 13:31:02;;;;;;;17.62;12.00;;;;;;;2.21;87.45;99614.19;1670596;84;21082;-47
2022/02/03 13:33:31;;;;;;;19.45;12.50;;;;;;;2.17;87.78;99612.80;1673060;83;20995;-47
2022/02/03 13:36:05;;;;;;;18.00;11.53;;;;;;;2.11;88.16;99618.69;1673328;84;21009;-48
2022/02/03 13:38:39;;;;;;;16.20;9.40;;;;;;;2.04;88.36;99611.64;1678215;84;20985;-46
2022/02/03 13:41:18;;;;;;;15.98;10.90;;;;;;;1.97;88.53;99609.73;1672715;84;21050;-46
2022/02/03 13:43:45;;;;;;;14.43;9.80;;;;;;;1.92;88.81;99612.23;1672942;84;20997;-45
2022/02/03 13:46:15;;;;;;;16.15;10.20;;;;;;;1.87;89.14;99620.27;1671223;85;21133;-45
2022/02/03 13:48:46;;;;;;;12.90;9.55;;;;;;;1.83;89.19;99615.45;1674187;84;21352;-37
2022/02/03 13:51:14;;;;;;;14.30;9.10;;;;;;;1.82;89.34;99620.16;1670930;84;21148;-38
2022/02/03 13:53:48;;;;;;;13.05;9.43;;;;;;;1.81;89.47;99622.28;1633261;85;21048;-40
